Time;durP1;ratioP1;P1;durP2;ratioP2;P2;SDS_P1;SDS_P2;PMS_P1;PMS_P2;Temp;Humidity;BMP_temperature;BMP_pressure;BME280_temperature;BME280_humidity;BME280_pressure;Samples;Min_cycle;Max_cycle;Signal;HPM_P1;HPM_P2
2022/03/08 00:02:25;;;;;;;36.97;21.33;;;25.20;99.90;;;;;;5059029;28;20031;-62
2022/03/08 00:04:51;;;;;;;35.35;26.10;;;25.20;99.90;;;;;;5067167;28;20051;-62
2022/03/08 00:07:18;;;;;;;35.92;24.92;;;25.20;99.90;;;;;;5071864;28;20493;-62
2022/03/08 00:09:45;;;;;;;61.78;44.97;;;25.20;99.90;;;;;;5064730;28;20051;-63
2022/03/08 00:12:12;;;;;;;55.90;38.55;;;25.20;99.90;;;;;;5059929;28;20056;-62
2022/03/08 00:14:39;;;;;;;63.80;43.55;;;25.30;99.90;;;;;;5064115;28;20101;-62
2022/03/08 00:17:05;;;;;;;69.35;53.17;;;25.30;99.90;;;;;;5065461;28;20481;-62
2022/03/08 00:19:32;;;;;;;41.97;34.25;;;25.30;99.90;;;;;;5068683;28;20068;-62
2022/03/08 00:21:59;;;;;;;53.25;39.33;;;25.20;99.90;;;;;;5065996;28;20017;-62
2022/03/08 00:24:26;;;;;;;57.65;43.10;;;25.20;99.90;;;;;;5067853;28;20021;-62
2022/03/08 00:26:53;;;;;;;77.28;57.42;;;25.20;99.90;;;;;;5064733;28;20026;-62
2022/03/08 00:29:20;;;;;;;202.88;161.20;;;25.20;99.90;;;;;;5067466;28;20378;-62
2022/03/08 00:31:46;;;;;;;102.75;76.47;;;25.20;99.90;;;;;;5066953;28;20021;-62
2022/03/08 00:34:13;;;;;;;118.50;82.35;;;25.30;99.90;;;;;;5063958;28;20041;-62
2022/03/08 00:36:40;;;;;;;110.20;82.28;;;25.30;99.90;;;;;;5066981;28;20039;-62
2022/03/08 00:39:07;;;;;;;110.50;81.07;;;25.30;99.90;;;;;;5064915;28;20025;-62
2022/03/08 00:41:33;;;;;;;109.57;78.22;;;25.30;99.90;;;;;;5064793;28;20103;-62
2022/03/08 00:44:00;;;;;;;106.60;79.60;;;25.40;99.90;;;;;;5066363;28;20226;-62
2022/03/08 00:46:27;;;;;;;120.88;89.03;;;25.50;99.90;;;;;;5066336;28;20024;-62
2022/03/08 00:48:55;;;;;;;124.15;97.55;;;25.50;99.90;;;;;;5066234;28;20080;-63
2022/03/08 00:51:23;;;;;;;117.53;89.43;;;25.50;99.90;;;;;;5067942;28;20090;-63
2022/03/08 00:53:50;;;;;;;122.75;85.97;;;25.50;99.90;;;;;;5064174;28;20057;-63
2022/03/08 00:56:17;;;;;;;95.68;73.70;;;25.60;99.90;;;;;;5067215;28;20032;-63
2022/03/08 00:58:47;;;;;;;81.82;62.08;;;25.60;99.90;;;;;;5063145;28;20033;-63
2022/03/08 01:01:14;;;;;;;68.38;53.55;;;25.60;99.90;;;;;;5067088;28;20382;-63
2022/03/08 01:03:40;;;;;;;62.42;49.08;;;25.70;99.90;;;;;;5066754;28;20032;-63
2022/03/08 01:06:07;;;;;;;66.03;47.58;;;25.70;99.90;;;;;;5065483;28;20075;-63
2022/03/08 01:08:34;;;;;;;62.67;48.05;;;25.70;99.90;;;;;;5064615;28;20021;-63
2022/03/08 01:11:01;;;;;;;59.42;48.75;;;25.70;99.90;;;;;;5065915;28;20063;-64
2022/03/08 01:13:27;;;;;;;57.17;46.47;;;25.70;99.90;;;;;;5065560;28;20078;-63
2022/03/08 01:15:54;;;;;;;54.47;46.00;;;25.80;99.90;;;;;;5062767;28;20108;-64
2022/03/08 01:18:21;;;;;;;59.92;47.03;;;25.80;99.90;;;;;;5066376;28;20054;-64
2022/03/08 01:20:47;;;;;;;137.70;105.05;;;25.80;99.90;;;;;;5066185;28;20071;-63
2022/03/08 01:23:14;;;;;;;51.80;43.30;;;25.90;99.90;;;;;;5061874;28;20112;-64
2022/03/08 01:25:41;;;;;;;48.20;37.10;;;25.90;99.90;;;;;;5063720;28;20036;-64
2022/03/08 01:28:08;;;;;;;58.35;46.78;;;25.90;99.90;;;;;;5063877;28;20035;-63
2022/03/08 01:30:36;;;;;;;250.23;160.77;;;26.00;99.90;;;;;;5064409;28;20266;-63
2022/03/08 01:33:03;;;;;;;106.88;73.57;;;26.00;99.90;;;;;;5064348;28;20025;-63
2022/03/08 01:35:30;;;;;;;72.10;56.58;;;26.10;99.90;;;;;;5064339;28;20048;-63
2022/03/08 01:37:56;;;;;;;63.40;46.75;;;26.20;99.90;;;;;;5066686;28;20113;-63
2022/03/08 01:40:23;;;;;;;65.32;49.42;;;26.30;99.90;;;;;;5066242;28;20021;-63
2022/03/08 01:42:51;;;;;;;74.40;54.60;;;26.30;99.90;;;;;;5066144;28;20074;-63
2022/03/08 01:45:21;;;;;;;69.05;53.03;;;26.30;99.90;;;;;;5064970;28;20036;-61
2022/03/08 01:47:48;;;;;;;67.53;54.05;;;26.40;99.90;;;;;;5061144;28;20035;-63
2022/03/08 01:50:15;;;;;;;70.00;53.50;;;26.40;99.90;;;;;;5062646;28;20032;-61
2022/03/08 01:52:42;;;;;;;54.55;39.75;;;26.50;99.90;;;;;;5057896;28;20043;-62
2022/03/08 01:55:11;;;;;;;35.85;26.38;;;26.50;99.90;;;;;;5062645;28;20066;-62
2022/03/08 01:57:38;;;;;;;36.95;22.52;;;26.50;99.90;;;;;;5065534;28;20051;-64
2022/03/08 02:00:08;;;;;;;39.15;21.75;;;26.50;99.90;;;;;;5060934;28;20036;-61
2022/03/08 02:02:34;;;;;;;26.38;17.98;;;26.60;99.90;;;;;;5059190;28;20036;-61
2022/03/08 02:05:01;;;;;;;25.02;17.98;;;26.60;99.90;;;;;;5068596;28;20032;-61
2022/03/08 02:07:28;;;;;;;33.03;17.25;;;26.70;99.90;;;;;;5058972;28;20020;-61
2022/03/08 02:09:54;;;;;;;21.73;15.57;;;26.80;99.90;;;;;;5059269;28;20029;-62
2022/03/08 02:12:21;;;;;;;27.02;17.08;;;26.80;99.90;;;;;;5063466;28;20021;-62
2022/03/08 02:14:48;;;;;;;23.23;16.60;;;26.90;99.90;;;;;;5060664;28;20037;-62
2022/03/08 02:17:14;;;;;;;30.35;16.40;;;26.90;99.90;;;;;;5065798;28;20021;-61
2022/03/08 02:19:41;;;;;;;25.73;16.00;;;26.90;99.90;;;;;;5069369;28;20202;-61
2022/03/08 02:22:08;;;;;;;25.88;17.05;;;26.90;99.90;;;;;;5057198;28;20114;-62
2022/03/08 02:24:35;;;;;;;24.45;16.10;;;27.00;99.90;;;;;;5048206;28;20031;-61
2022/03/08 02:27:01;;;;;;;29.08;17.52;;;27.00;99.90;;;;;;5034903;28;20084;-61
2022/03/08 02:29:28;;;;;;;21.17;12.88;;;27.00;99.90;;;;;;5037793;28;20446;-61
2022/03/08 02:31:58;;;;;;;37.03;27.05;;;27.00;99.90;;;;;;5059642;28;20056;-62
2022/03/08 02:34:25;;;;;;;31.65;21.05;;;27.10;99.90;;;;;;5061507;28;20043;-62
2022/03/08 02:37:07;;;;;;;21.05;14.07;;;27.20;99.90;;;;;;5063546;28;20268;-62
2022/03/08 02:39:35;;;;;;;15.65;11.18;;;27.20;99.90;;;;;;5064731;28;20073;-62
2022/03/08 02:42:02;;;;;;;12.65;9.80;;;27.30;99.90;;;;;;5056456;28;20056;-62
2022/03/08 02:44:29;;;;;;;16.20;11.68;;;27.30;99.90;;;;;;5061985;28;20029;-62
2022/03/08 02:46:56;;;;;;;22.20;14.93;;;27.30;99.90;;;;;;5061655;28;20027;-61
2022/03/08 02:49:23;;;;;;;25.52;17.83;;;27.30;99.90;;;;;;5061381;28;20025;-61
2022/03/08 02:51:50;;;;;;;21.60;10.82;;;27.40;99.90;;;;;;5065473;28;20146;-62
2022/03/08 02:54:16;;;;;;;40.22;31.17;;;27.40;99.90;;;;;;5059636;28;20078;-62
2022/03/08 02:56:43;;;;;;;21.20;12.07;;;27.50;99.90;;;;;;5053649;28;20032;-60
2022/03/08 02:59:10;;;;;;;24.73;18.30;;;27.60;99.90;;;;;;5062053;28;20040;-61
2022/03/08 03:01:37;;;;;;;21.38;14.02;;;27.60;99.90;;;;;;5059395;28;20048;-61
2022/03/08 03:04:03;;;;;;;13.02;8.18;;;27.60;99.90;;;;;;5053346;28;20021;-61
2022/03/08 03:06:31;;;;;;;16.27;10.95;;;27.70;99.90;;;;;;5054915;28;20043;-61
2022/03/08 03:08:58;;;;;;;16.08;9.02;;;27.70;99.90;;;;;;5063234;28;20032;-61
2022/03/08 03:11:24;;;;;;;57.58;39.03;;;27.70;99.90;;;;;;5064651;28;20059;-61
2022/03/08 03:13:51;;;;;;;41.97;31.13;;;27.70;99.90;;;;;;5069177;28;20028;-62
2022/03/08 03:16:18;;;;;;;154.85;75.32;;;27.80;99.90;;;;;;5053149;28;20492;-62
2022/03/08 03:18:44;;;;;;;94.10;43.08;;;27.90;99.90;;;;;;5052222;28;20079;-62
2022/03/08 03:21:11;;;;;;;69.97;54.65;;;28.00;99.90;;;;;;5053659;28;20526;-62
2022/03/08 03:23:38;;;;;;;17.67;12.23;;;27.90;99.90;;;;;;5053478;28;20024;-62
2022/03/08 03:26:04;;;;;;;14.05;9.35;;;27.90;99.90;;;;;;5053424;28;20045;-62
2022/03/08 03:28:31;;;;;;;10.77;6.65;;;28.00;99.90;;;;;;5053655;28;20033;-62
2022/03/08 03:30:58;;;;;;;9.95;7.20;;;28.10;99.90;;;;;;5053494;28;20029;-62
2022/03/08 03:33:25;;;;;;;13.75;8.10;;;28.00;99.90;;;;;;5050072;28;20041;-63
2022/03/08 03:35:51;;;;;;;11.00;7.68;;;28.10;99.90;;;;;;5049190;28;20033;-63
2022/03/08 03:38:18;;;;;;;12.48;7.20;;;28.10;99.90;;;;;;5051618;28;20025;-63
2022/03/08 03:40:45;;;;;;;12.50;6.35;;;28.20;99.90;;;;;;5051959;28;20473;-63
2022/03/08 03:43:11;;;;;;;57.22;22.15;;;28.30;99.90;;;;;;5053345;28;20096;-62
2022/03/08 03:45:38;;;;;;;12.77;6.80;;;28.40;99.90;;;;;;5052874;28;20104;-62
2022/03/08 03:48:05;;;;;;;11.73;7.70;;;28.40;99.90;;;;;;5057124;28;20017;-62
2022/03/08 03:50:32;;;;;;;13.48;6.97;;;28.50;99.90;;;;;;5057656;28;20029;-63
2022/03/08 03:52:59;;;;;;;11.27;6.20;;;28.50;99.90;;;;;;5057456;28;20029;-63
2022/03/08 03:55:25;;;;;;;11.75;7.65;;;28.50;99.90;;;;;;5057354;28;20074;-63
2022/03/08 03:57:52;;;;;;;9.35;6.60;;;28.50;99.90;;;;;;5056500;28;20385;-63
2022/03/08 04:00:19;;;;;;;9.93;5.70;;;28.60;99.90;;;;;;5058291;28;20036;-61
2022/03/08 04:02:46;;;;;;;11.55;7.30;;;28.50;99.90;;;;;;5048494;28;20048;-62
2022/03/08 04:05:13;;;;;;;13.35;7.57;;;28.60;99.90;;;;;;5052063;28;20485;-62
2022/03/08 04:07:40;;;;;;;10.75;7.80;;;28.60;99.90;;;;;;5056115;28;20075;-62
2022/03/08 04:10:09;;;;;;;17.30;9.50;;;28.60;99.90;;;;;;5057297;28;20036;-64
2022/03/08 04:12:36;;;;;;;18.60;9.57;;;28.70;99.90;;;;;;5057399;28;20025;-62
2022/03/08 04:15:03;;;;;;;13.38;8.65;;;28.70;99.90;;;;;;5057066;28;20102;-63
2022/03/08 04:17:30;;;;;;;15.80;7.22;;;28.70;99.90;;;;;;5057149;28;20040;-62
2022/03/08 04:19:57;;;;;;;8.98;6.18;;;28.70;99.90;;;;;;5057106;28;20037;-62
2022/03/08 04:22:23;;;;;;;47.03;35.15;;;28.70;99.90;;;;;;5057144;28;20074;-63
2022/03/08 04:24:50;;;;;;;16.60;7.45;;;28.70;99.90;;;;;;5056436;28;20043;-63
2022/03/08 04:27:17;;;;;;;9.15;7.65;;;28.70;99.90;;;;;;5056765;28;20029;-63
2022/03/08 04:29:43;;;;;;;6.65;5.53;;;28.80;99.90;;;;;;5055680;28;20055;-63
2022/03/08 04:32:10;;;;;;;18.10;8.05;;;28.80;99.90;;;;;;5064854;28;20032;-63
2022/03/08 04:34:37;;;;;;;9.73;5.75;;;28.80;99.90;;;;;;5062598;28;20029;-64
2022/03/08 04:37:04;;;;;;;17.08;5.32;;;28.80;99.90;;;;;;5064649;28;20033;-63
2022/03/08 04:39:30;;;;;;;10.50;6.30;;;28.90;99.90;;;;;;5066065;28;20496;-64
2022/03/08 04:41:57;;;;;;;12.02;5.70;;;28.90;99.90;;;;;;5064205;28;20032;-64
2022/03/08 04:44:24;;;;;;;11.82;6.18;;;29.00;99.90;;;;;;5056440;28;20031;-65
2022/03/08 04:46:50;;;;;;;8.82;6.60;;;29.00;99.90;;;;;;5053775;28;20031;-64
2022/03/08 04:49:17;;;;;;;8.43;6.93;;;29.00;99.90;;;;;;5056211;28;20028;-65
2022/03/08 04:51:44;;;;;;;11.00;7.43;;;29.00;99.90;;;;;;5055564;28;20389;-64
2022/03/08 04:54:10;;;;;;;9.90;5.90;;;29.00;99.90;;;;;;5056345;28;20032;-63
2022/03/08 04:56:37;;;;;;;12.25;7.75;;;29.00;99.90;;;;;;5056624;28;20028;-65
2022/03/08 04:59:05;;;;;;;27.20;18.67;;;29.10;99.90;;;;;;5054809;28;20033;-65
2022/03/08 05:01:31;;;;;;;10.43;8.20;;;29.10;99.90;;;;;;5056633;28;20100;-66
2022/03/08 05:03:58;;;;;;;11.65;6.65;;;29.20;99.90;;;;;;5056335;28;20505;-65
2022/03/08 05:06:26;;;;;;;8.98;6.05;;;29.30;99.90;;;;;;5057007;28;20277;-66
2022/03/08 05:08:53;;;;;;;6.47;5.57;;;29.30;99.90;;;;;;5057362;28;20039;-64
2022/03/08 05:11:20;;;;;;;10.77;5.82;;;29.40;99.90;;;;;;5056610;28;20033;-65
2022/03/08 05:13:46;;;;;;;8.52;5.93;;;29.40;99.90;;;;;;5053846;28;20108;-65
2022/03/08 05:16:13;;;;;;;11.75;6.72;;;29.40;99.90;;;;;;5050597;28;20079;-66
2022/03/08 05:18:40;;;;;;;10.20;7.88;;;29.40;99.90;;;;;;5060340;28;20040;-67
2022/03/08 05:21:06;;;;;;;11.48;6.40;;;29.40;99.90;;;;;;5065396;28;20031;-66
2022/03/08 05:23:33;;;;;;;11.57;7.75;;;29.50;99.90;;;;;;5062614;28;20119;-64
2022/03/08 05:26:00;;;;;;;11.57;6.70;;;29.50;99.90;;;;;;5061093;28;20044;-66
2022/03/08 05:28:27;;;;;;;8.73;5.78;;;29.60;99.90;;;;;;5055561;28;20037;-65
2022/03/08 05:30:53;;;;;;;14.35;6.60;;;29.60;99.90;;;;;;5067053;28;20107;-65
2022/03/08 05:33:20;;;;;;;7.38;5.90;;;29.60;99.90;;;;;;5058928;28;20023;-66
2022/03/08 05:35:47;;;;;;;16.75;13.45;;;29.60;99.90;;;;;;5052130;28;20033;-66
2022/03/08 05:38:13;;;;;;;9.93;7.20;;;29.60;99.90;;;;;;5052378;28;20028;-65
2022/03/08 05:40:40;;;;;;;44.72;36.25;;;29.60;99.90;;;;;;5055260;28;20021;-65
2022/03/08 05:43:07;;;;;;;22.45;16.65;;;29.70;99.90;;;;;;5064710;28;20100;-64
2022/03/08 05:45:33;;;;;;;9.20;6.88;;;29.70;99.90;;;;;;5055589;28;20028;-64
2022/03/08 05:48:00;;;;;;;6.82;5.70;;;29.70;99.90;;;;;;5055483;28;20074;-64
2022/03/08 05:50:27;;;;;;;14.60;8.15;;;29.80;99.90;;;;;;5055973;28;20029;-64
2022/03/08 05:52:53;;;;;;;10.55;7.35;;;29.80;99.90;;;;;;5054890;28;20028;-64
2022/03/08 05:55:20;;;;;;;8.95;6.20;;;29.80;99.90;;;;;;5054955;28;20075;-64
2022/03/08 05:57:47;;;;;;;8.45;6.38;;;29.80;99.90;;;;;;5054653;28;20032;-65
2022/03/08 06:00:14;;;;;;;14.43;6.10;;;29.80;99.90;;;;;;5054557;28;20032;-64
2022/03/08 06:02:42;;;;;;;11.73;6.43;;;29.80;99.90;;;;;;5054587;28;20044;-65
2022/03/08 06:05:09;;;;;;;9.63;5.63;;;29.80;99.90;;;;;;5052659;28;20053;-65
2022/03/08 06:07:36;;;;;;;7.35;5.70;;;29.80;99.90;;;;;;5054794;28;20051;-64
2022/03/08 06:10:04;;;;;;;9.38;6.03;;;29.90;99.90;;;;;;5054314;28;20083;-64
2022/03/08 06:12:30;;;;;;;7.65;5.38;;;29.90;99.90;;;;;;5050780;28;20036;-64
2022/03/08 06:14:57;;;;;;;6.57;5.70;;;29.90;99.90;;;;;;5040849;28;20044;-64
2022/03/08 06:17:24;;;;;;;8.93;5.97;;;29.90;99.90;;;;;;5053805;28;20033;-64
2022/03/08 06:19:51;;;;;;;9.02;5.95;;;29.90;99.90;;;;;;5045948;28;20494;-64
2022/03/08 06:22:18;;;;;;;9.93;7.38;;;29.90;99.90;;;;;;5053195;28;20355;-64
2022/03/08 06:24:45;;;;;;;12.98;7.85;;;30.00;99.90;;;;;;5041773;28;20108;-64
2022/03/08 06:27:13;;;;;;;10.45;7.18;;;30.10;99.90;;;;;;5052492;28;20040;-64
2022/03/08 06:29:40;;;;;;;9.75;7.20;;;30.20;99.90;;;;;;5053795;28;20083;-63
2022/03/08 06:32:08;;;;;;;10.00;6.70;;;30.20;99.90;;;;;;5047050;28;20021;-64
2022/03/08 06:34:34;;;;;;;7.82;5.85;;;30.10;99.90;;;;;;5053967;28;20041;-66
2022/03/08 06:37:02;;;;;;;17.17;14.27;;;30.10;99.90;;;;;;5051933;28;20036;-67
2022/03/08 06:39:29;;;;;;;21.70;15.20;;;30.10;99.90;;;;;;5063466;28;20113;-65
2022/03/08 06:41:56;;;;;;;15.55;12.73;;;30.10;99.90;;;;;;5052421;28;20116;-67
2022/03/08 06:44:23;;;;;;;10.65;7.07;;;30.30;99.90;;;;;;5061297;28;20377;-68
2022/03/08 06:46:50;;;;;;;7.53;6.32;;;30.40;99.90;;;;;;5060428;28;20028;-66
2022/03/08 06:49:16;;;;;;;18.08;14.40;;;30.40;99.90;;;;;;5063950;28;20073;-66
2022/03/08 06:51:43;;;;;;;13.20;6.65;;;30.50;99.90;;;;;;5061503;28;20031;-65
2022/03/08 06:54:10;;;;;;;12.88;9.50;;;30.60;99.90;;;;;;5063783;28;20024;-67
2022/03/08 06:56:39;;;;;;;10.75;6.43;;;30.70;99.90;;;;;;5062286;28;20161;-67
2022/03/08 06:59:06;;;;;;;10.25;6.43;;;30.80;99.90;;;;;;5060896;28;20370;-67
2022/03/08 07:01:33;;;;;;;16.45;6.45;;;30.80;99.90;;;;;;5062070;28;20036;-67
2022/03/08 07:04:03;;;;;;;13.05;9.45;;;31.00;99.90;;;;;;5060283;28;20476;-65
2022/03/08 07:06:29;;;;;;;7.15;6.20;;;31.10;99.90;;;;;;5062252;28;20029;-66
2022/03/08 07:08:57;;;;;;;10.25;6.85;;;31.00;99.90;;;;;;5064885;28;20028;-66
2022/03/08 07:11:24;;;;;;;10.30;6.60;;;31.10;99.90;;;;;;5063012;28;20045;-65
2022/03/08 07:13:52;;;;;;;9.02;7.22;;;31.20;99.90;;;;;;5062097;28;20123;-65
2022/03/08 07:16:18;;;;;;;9.50;6.93;;;31.30;99.90;;;;;;5062398;28;20032;-67
2022/03/08 07:18:45;;;;;;;10.13;7.10;;;31.20;99.90;;;;;;5061645;28;20066;-66
2022/03/08 07:21:12;;;;;;;8.90;7.32;;;31.20;99.90;;;;;;5061506;28;20025;-65
2022/03/08 07:23:39;;;;;;;8.63;7.38;;;31.20;99.90;;;;;;5060724;28;20035;-65
2022/03/08 07:26:06;;;;;;;11.90;7.50;;;31.20;99.90;;;;;;5052988;28;20025;-65
2022/03/08 07:28:33;;;;;;;11.10;7.38;;;31.10;99.90;;;;;;5058594;28;20090;-66
2022/03/08 07:31:01;;;;;;;10.40;7.75;;;31.20;99.90;;;;;;5062391;28;20074;-65
2022/03/08 07:33:27;;;;;;;10.73;7.70;;;31.30;99.90;;;;;;5059134;28;20021;-66
2022/03/08 07:35:54;;;;;;;8.48;7.55;;;31.20;99.90;;;;;;5063911;28;20032;-67
2022/03/08 07:38:21;;;;;;;8.95;7.88;;;31.30;99.90;;;;;;5061876;28;20036;-67
2022/03/08 07:40:48;;;;;;;10.98;7.68;;;31.30;99.90;;;;;;5063436;28;20082;-65
2022/03/08 07:43:14;;;;;;;9.07;7.53;;;31.30;99.90;;;;;;5062642;28;20501;-64
2022/03/08 07:45:42;;;;;;;82.50;63.35;;;31.20;99.90;;;;;;5053832;28;20033;-65
2022/03/08 07:48:08;;;;;;;34.97;25.27;;;31.20;99.90;;;;;;5053519;28;20481;-66
2022/03/08 07:50:36;;;;;;;11.23;8.30;;;31.20;99.90;;;;;;5053610;28;20462;-67
2022/03/08 07:53:04;;;;;;;10.02;8.80;;;31.20;99.90;;;;;;5053426;28;20424;-66
2022/03/08 07:55:31;;;;;;;10.57;8.60;;;31.20;99.90;;;;;;5053005;28;20062;-67
2022/03/08 07:57:59;;;;;;;16.67;12.23;;;31.30;99.90;;;;;;5053328;28;20033;-66
2022/03/08 08:00:27;;;;;;;15.13;12.25;;;31.30;99.90;;;;;;5052794;28;20367;-66
2022/03/08 08:02:53;;;;;;;13.40;10.65;;;31.20;99.90;;;;;;5052949;28;20487;-61
2022/03/08 08:05:20;;;;;;;15.85;9.32;;;31.30;99.90;;;;;;5053445;28;20037;-62
2022/03/08 08:07:47;;;;;;;13.93;9.05;;;31.30;99.90;;;;;;5053065;28;20091;-63
2022/03/08 08:10:14;;;;;;;13.25;9.45;;;31.20;99.90;;;;;;5053482;28;20095;-61
2022/03/08 08:12:41;;;;;;;10.23;9.00;;;31.20;99.90;;;;;;5053261;28;20044;-61
2022/03/08 08:15:08;;;;;;;12.10;9.50;;;31.30;99.90;;;;;;5053662;28;20076;-62
2022/03/08 08:17:35;;;;;;;10.60;9.18;;;31.30;99.90;;;;;;5053159;28;20056;-60
2022/03/08 08:20:02;;;;;;;10.60;8.30;;;31.30;99.90;;;;;;5053531;28;20106;-62
2022/03/08 08:22:28;;;;;;;11.57;8.50;;;31.20;99.90;;;;;;5051161;28;20040;-64
2022/03/08 08:24:55;;;;;;;14.48;9.52;;;31.20;99.90;;;;;;5053365;28;20041;-61
2022/03/08 08:27:22;;;;;;;11.32;9.95;;;31.30;99.90;;;;;;5053258;28;20036;-62
2022/03/08 08:29:48;;;;;;;11.70;9.63;;;31.30;99.90;;;;;;5053008;28;20420;-61
2022/03/08 08:32:15;;;;;;;16.40;9.93;;;31.10;99.90;;;;;;5054013;28;20091;-61
2022/03/08 08:34:42;;;;;;;14.07;9.48;;;31.10;99.90;;;;;;5056643;28;20122;-61
2022/03/08 08:37:09;;;;;;;10.30;9.20;;;31.10;99.90;;;;;;5056729;28;20055;-62
2022/03/08 08:39:36;;;;;;;12.43;9.57;;;31.10;99.90;;;;;;5060000;28;20040;-62
2022/03/08 08:42:03;;;;;;;10.77;9.07;;;31.30;99.90;;;;;;5066130;28;20087;-61
2022/03/08 08:44:30;;;;;;;14.13;10.25;;;31.40;99.90;;;;;;5066068;28;20027;-61
2022/03/08 08:46:57;;;;;;;14.05;9.77;;;31.50;99.90;;;;;;5066037;28;20024;-61
2022/03/08 08:49:25;;;;;;;12.23;9.32;;;31.60;99.90;;;;;;5066024;28;20073;-61
2022/03/08 08:51:52;;;;;;;10.38;9.27;;;31.50;99.80;;;;;;5064883;28;20470;-60
2022/03/08 08:54:19;;;;;;;11.45;8.43;;;31.60;99.40;;;;;;5062878;28;20033;-61
2022/03/08 08:56:45;;;;;;;17.42;9.43;;;31.50;99.90;;;;;;5066219;28;20125;-61
2022/03/08 08:59:12;;;;;;;15.75;8.63;;;31.50;99.20;;;;;;5061440;28;20392;-63
2022/03/08 09:01:39;;;;;;;12.55;8.95;;;31.40;99.30;;;;;;5064197;28;20447;-64
2022/03/08 09:04:05;;;;;;;19.05;10.00;;;31.30;98.70;;;;;;5065733;28;20330;-61
2022/03/08 09:06:32;;;;;;;20.92;14.13;;;31.30;99.40;;;;;;5068024;28;20167;-63
2022/03/08 09:08:59;;;;;;;19.23;12.55;;;31.40;99.90;;;;;;5065735;28;20025;-64
2022/03/08 09:11:26;;;;;;;14.82;11.25;;;31.50;99.90;;;;;;5068360;28;20098;-62
2022/03/08 09:13:53;;;;;;;11.07;9.48;;;31.50;99.90;;;;;;5056488;28;20033;-63
2022/03/08 09:16:20;;;;;;;13.13;9.82;;;31.60;99.90;;;;;;5063360;28;20090;-62
2022/03/08 09:18:46;;;;;;;17.52;11.18;;;31.60;99.90;;;;;;5062685;28;20029;-64
2022/03/08 09:21:13;;;;;;;16.77;11.75;;;31.60;99.50;;;;;;5058333;28;20062;-64
2022/03/08 09:23:41;;;;;;;19.80;12.38;;;31.60;99.20;;;;;;5061610;28;20059;-65
2022/03/08 09:26:08;;;;;;;20.05;11.98;;;31.60;98.90;;;;;;5066576;28;20041;-66
2022/03/08 09:28:35;;;;;;;19.23;10.82;;;31.70;99.40;;;;;;5065485;28;20021;-65
2022/03/08 09:31:02;;;;;;;12.65;10.20;;;31.60;99.10;;;;;;5062358;28;20060;-65
2022/03/08 09:33:29;;;;;;;14.60;10.70;;;31.70;98.90;;;;;;5055541;28;20025;-64
2022/03/08 09:35:56;;;;;;;16.17;11.23;;;31.70;98.20;;;;;;5055713;28;20065;-63
2022/03/08 09:38:22;;;;;;;15.27;11.63;;;31.60;97.40;;;;;;5055561;28;20446;-63
2022/03/08 09:40:52;;;;;;;18.05;13.18;;;31.60;98.30;;;;;;5052161;28;20055;-63
2022/03/08 09:43:19;;;;;;;17.85;13.88;;;31.70;98.70;;;;;;5042817;28;20486;-62
2022/03/08 09:45:46;;;;;;;15.63;11.25;;;31.80;98.80;;;;;;5042096;28;20174;-63
2022/03/08 09:48:13;;;;;;;15.43;10.05;;;31.80;98.30;;;;;;5041036;28;20500;-63
2022/03/08 09:50:39;;;;;;;13.30;11.15;;;31.90;98.00;;;;;;5064434;28;20339;-63
2022/03/08 09:53:09;;;;;;;95.13;73.75;;;31.80;97.80;;;;;;5062810;28;20095;-64
2022/03/08 09:55:36;;;;;;;77.20;54.17;;;31.80;98.20;;;;;;5063673;28;20484;-63
2022/03/08 09:58:04;;;;;;;95.38;63.22;;;31.90;98.50;;;;;;5064734;28;20036;-64
2022/03/08 10:00:32;;;;;;;69.38;43.95;;;31.90;98.10;;;;;;5065287;28;20033;-64
2022/03/08 10:03:00;;;;;;;30.27;21.15;;;32.00;97.80;;;;;;5061052;28;20021;-65
2022/03/08 10:05:43;;;;;;;32.63;22.85;;;32.00;97.60;;;;;;5064136;28;20107;-65
2022/03/08 10:08:21;;;;;;;16.58;11.77;;;32.00;98.10;;;;;;5064124;28;20021;-64
2022/03/08 10:10:55;;;;;;;17.05;11.90;;;31.80;97.60;;;;;;5063378;28;20025;-64
2022/03/08 10:13:25;;;;;;;16.42;12.13;;;31.70;97.30;;;;;;5062088;28;20025;-64
2022/03/08 10:16:24;;;;;;;13.18;10.25;;;31.60;97.20;;;;;;5060129;28;20029;-64
2022/03/08 10:19:03;;;;;;;15.70;11.82;;;31.60;97.70;;;;;;5063764;28;20113;-64
2022/03/08 10:21:31;;;;;;;17.77;11.93;;;31.70;98.10;;;;;;5061809;28;20369;-65
2022/03/08 10:24:00;;;;;;;17.20;11.77;;;31.80;98.30;;;;;;5065062;28;20480;-64
2022/03/08 10:26:28;;;;;;;20.30;11.95;;;31.80;97.40;;;;;;5052353;28;20075;-64
2022/03/08 10:28:56;;;;;;;14.35;11.50;;;31.80;98.10;;;;;;5056737;28;20485;-64
2022/03/08 10:31:23;;;;;;;31.02;20.58;;;31.80;98.20;;;;;;5071036;28;20028;-66
2022/03/08 10:33:50;;;;;;;25.00;16.08;;;31.80;98.10;;;;;;5052586;28;20070;-65
2022/03/08 10:36:21;;;;;;;22.92;16.13;;;31.80;98.20;;;;;;5040410;28;20038;-63
2022/03/08 10:39:11;;;;;;;149.50;115.10;;;31.80;98.50;;;;;;5054554;28;20029;-65
2022/03/08 10:41:51;;;;;;;94.07;62.47;;;31.80;98.10;;;;;;5054460;28;20104;-64
2022/03/08 10:44:31;;;;;;;75.07;51.25;;;31.80;97.60;;;;;;5055580;28;20444;-64
2022/03/08 10:47:08;;;;;;;47.88;33.50;;;31.80;97.70;;;;;;5054792;28;20029;-64
2022/03/08 10:49:46;;;;;;;101.45;70.03;;;31.80;97.30;;;;;;5054414;28;20036;-64
2022/03/08 10:52:13;;;;;;;40.22;28.63;;;31.80;97.50;;;;;;5054526;28;20032;-63
2022/03/08 10:54:40;;;;;;;24.10;15.90;;;31.70;96.80;;;;;;5054863;28;20031;-65
2022/03/08 10:57:09;;;;;;;36.80;26.35;;;31.60;96.50;;;;;;5054019;28;20037;-64
2022/03/08 10:59:36;;;;;;;34.63;23.75;;;31.60;97.30;;;;;;5054681;28;20029;-64
2022/03/08 11:02:22;;;;;;;75.43;53.03;;;31.70;97.60;;;;;;5054745;28;20111;-64
2022/03/08 11:05:06;;;;;;;48.50;33.53;;;31.70;97.60;;;;;;5054853;28;20029;-62
2022/03/08 11:07:33;;;;;;;84.70;59.38;;;31.70;97.80;;;;;;5061360;28;20036;-60
2022/03/08 11:10:00;;;;;;;63.65;40.25;;;31.60;98.10;;;;;;5064895;28;20029;-60
2022/03/08 11:12:27;;;;;;;32.83;23.58;;;31.60;97.60;;;;;;5061653;28;20105;-62
2022/03/08 11:14:54;;;;;;;30.48;20.45;;;31.60;97.70;;;;;;5063522;28;20111;-61
2022/03/08 11:17:23;;;;;;;47.10;37.03;;;31.50;97.50;;;;;;5071436;28;20074;-60
2022/03/08 11:19:50;;;;;;;35.30;21.10;;;31.60;98.00;;;;;;5045576;28;20029;-61
2022/03/08 11:22:21;;;;;;;27.80;18.27;;;31.60;97.40;;;;;;5034049;28;20032;-60
2022/03/08 11:24:48;;;;;;;44.75;29.52;;;31.60;97.00;;;;;;5033629;28;20124;-61
2022/03/08 11:27:16;;;;;;;68.53;48.30;;;31.50;97.70;;;;;;5052532;28;20366;-61
2022/03/08 11:29:43;;;;;;;62.92;41.30;;;31.40;98.20;;;;;;5053511;28;20037;-61
2022/03/08 11:32:24;;;;;;;49.40;30.52;;;31.50;98.50;;;;;;5053793;28;20068;-60
2022/03/08 11:34:56;;;;;;;60.93;32.53;;;31.40;98.60;;;;;;5053705;28;20035;-61
2022/03/08 11:37:28;;;;;;;61.35;34.67;;;31.30;99.00;;;;;;5053764;28;20048;-61
2022/03/08 11:40:10;;;;;;;61.67;40.17;;;31.30;98.60;;;;;;5053385;28;20439;-61
2022/03/08 11:42:42;;;;;;;93.18;55.63;;;31.20;99.10;;;;;;5034074;28;20315;-61
2022/03/08 11:45:11;;;;;;;;;;;31.20;99.20;;;;;;5043304;28;20025;-61
2022/03/08 11:47:41;;;;;;;79.38;48.40;;;31.20;99.30;;;;;;5053473;28;19904;-61
2022/03/08 11:50:28;;;;;;;76.75;44.30;;;31.10;99.90;;;;;;5053795;28;20078;-61
2022/03/08 11:53:07;;;;;;;284.38;252.32;;;31.00;99.90;;;;;;5053622;28;20025;-62
2022/03/08 11:55:36;;;;;;;99.45;70.22;;;31.00;99.90;;;;;;5050659;28;20029;-62
2022/03/08 11:58:40;;;;;;;86.80;53.25;;;30.90;99.90;;;;;;5053704;28;20029;-62
2022/03/08 12:01:07;;;;;;;99.05;59.60;;;30.90;99.90;;;;;;5051517;28;20032;-63
2022/03/08 12:03:34;;;;;;;101.65;56.90;;;30.90;99.90;;;;;;5052959;28;20013;-62
2022/03/08 12:06:06;;;;;;;89.35;56.90;;;30.90;99.90;;;;;;5053114;28;20071;-63
2022/03/08 12:08:44;;;;;;;131.15;76.45;;;30.90;99.90;;;;;;5056134;28;20013;-62
2022/03/08 12:11:15;;;;;;;122.70;77.93;;;30.90;99.90;;;;;;5057275;28;20095;-63
2022/03/08 12:13:46;;;;;;;136.95;77.82;;;30.90;99.90;;;;;;5056776;28;20476;-63
2022/03/08 12:16:26;;;;;;;138.23;80.10;;;30.90;99.90;;;;;;5058174;28;20033;-59
2022/03/08 12:18:55;;;;;;;110.00;67.32;;;30.80;99.90;;;;;;5064738;28;20281;-60
2022/03/08 12:21:31;;;;;;;87.93;58.30;;;30.80;99.90;;;;;;5064893;28;20032;-62
2022/03/08 12:24:03;;;;;;;108.45;66.45;;;30.80;99.90;;;;;;5064706;28;20386;-62
2022/03/08 12:26:33;;;;;;;103.90;63.88;;;30.70;99.90;;;;;;5062092;28;20068;-63
2022/03/08 12:29:18;;;;;;;109.28;64.75;;;30.70;99.90;;;;;;5057575;28;20171;-61
2022/03/08 12:31:57;;;;;;;117.47;66.72;;;30.70;99.90;;;;;;5062956;28;20041;-62
2022/03/08 12:34:46;;;;;;;156.60;91.18;;;30.70;99.90;;;;;;5064035;28;20033;-63
2022/03/08 12:37:19;;;;;;;164.05;93.25;;;30.70;99.90;;;;;;5062313;28;20393;-62